sensor_id;sensor_type;location;lat;lon;timestamp;temperature;humidity
67502;SHT30;54349;52.528;19.760;2022-09-09T00:02:02;24.02;46.16
67502;SHT30;54349;52.528;19.760;2022-09-09T00:04:48;23.77;46.42
67502;SHT30;54349;52.528;19.760;2022-09-09T00:07:40;23.80;46.35
67502;SHT30;54349;52.528;19.760;2022-09-09T00:15:54;23.81;44.75
67502;SHT30;54349;52.528;19.760;2022-09-09T00:21:24;23.61;45.80
67502;SHT30;54349;52.528;19.760;2022-09-09T00:24:23;23.68;45.80
67502;SHT30;54349;52.528;19.760;2022-09-09T00:27:41;23.72;45.80
67502;SHT30;54349;52.528;19.760;2022-09-09T00:32:53;23.68;45.42
67502;SHT30;54349;52.528;19.760;2022-09-09T00:35:32;23.50;45.99
67502;SHT30;54349;52.528;19.760;2022-09-09T00:38:21;23.53;46.01
67502;SHT30;54349;52.528;19.760;2022-09-09T00:43:57;23.64;45.96
67502;SHT30;54349;52.528;19.760;2022-09-09T00:46:44;23.68;45.84
67502;SHT30;54349;52.528;19.760;2022-09-09T00:55:11;23.46;46.19
67502;SHT30;54349;52.528;19.760;2022-09-09T00:57:49;23.50;46.12
67502;SHT30;54349;52.528;19.760;2022-09-09T01:00:27;23.56;46.11
67502;SHT30;54349;52.528;19.760;2022-09-09T01:08:36;23.33;46.26
67502;SHT30;54349;52.528;19.760;2022-09-09T01:17:19;23.48;46.25
67502;SHT30;54349;52.528;19.760;2022-09-09T01:26:13;23.26;46.49
67502;SHT30;54349;52.528;19.760;2022-09-09T01:28:51;23.31;46.54
67502;SHT30;54349;52.528;19.760;2022-09-09T01:31:58;23.37;46.50
67502;SHT30;54349;52.528;19.760;2022-09-09T01:34:31;23.42;46.44
67502;SHT30;54349;52.528;19.760;2022-09-09T01:37:06;23.45;46.40
67502;SHT30;54349;52.528;19.760;2022-09-09T01:39:39;23.46;45.96
67502;SHT30;54349;52.528;19.760;2022-09-09T01:42:15;23.23;46.52
67502;SHT30;54349;52.528;19.760;2022-09-09T01:44:45;23.21;46.78
67502;SHT30;54349;52.528;19.760;2022-09-09T01:47:14;23.27;46.75
67502;SHT30;54349;52.528;19.760;2022-09-09T01:49:56;23.33;46.70
67502;SHT30;54349;52.528;19.760;2022-09-09T01:52:34;23.38;46.64
67502;SHT30;54349;52.528;19.760;2022-09-09T01:55:07;23.42;46.59
67502;SHT30;54349;52.528;19.760;2022-09-09T01:57:53;23.44;46.30
67502;SHT30;54349;52.528;19.760;2022-09-09T02:01:35;23.18;46.71
67502;SHT30;54349;52.528;19.760;2022-09-09T02:03:55;23.18;46.96
67502;SHT30;54349;52.528;19.760;2022-09-09T02:06:36;23.23;46.94
67502;SHT30;54349;52.528;19.760;2022-09-09T02:09:17;23.29;46.86
67502;SHT30;54349;52.528;19.760;2022-09-09T02:11:53;23.34;46.80
67502;SHT30;54349;52.528;19.760;2022-09-09T02:14:42;23.38;46.79
67502;SHT30;54349;52.528;19.760;2022-09-09T02:17:36;23.38;46.30
67502;SHT30;54349;52.528;19.760;2022-09-09T02:20:15;23.16;46.84
67502;SHT30;54349;52.528;19.760;2022-09-09T02:22:50;23.14;47.07
67502;SHT30;54349;52.528;19.760;2022-09-09T02:25:22;23.20;47.09
67502;SHT30;54349;52.528;19.760;2022-09-09T02:27:57;23.25;47.02
67502;SHT30;54349;52.528;19.760;2022-09-09T02:30:29;23.29;46.96
67502;SHT30;54349;52.528;19.760;2022-09-09T02:33:02;23.33;46.90
67502;SHT30;54349;52.528;19.760;2022-09-09T02:35:48;23.38;46.83
67502;SHT30;54349;52.528;19.760;2022-09-09T02:38:20;23.28;46.32
67502;SHT30;54349;52.528;19.760;2022-09-09T02:41:01;23.11;47.10
67502;SHT30;54349;52.528;19.760;2022-09-09T02:43:33;23.14;47.20
67502;SHT30;54349;52.528;19.760;2022-09-09T02:46:21;23.19;47.16
67502;SHT30;54349;52.528;19.760;2022-09-09T02:48:53;23.25;47.10
67502;SHT30;54349;52.528;19.760;2022-09-09T02:54:20;23.32;47.01
67502;SHT30;54349;52.528;19.760;2022-09-09T02:59:44;23.13;47.03
67502;SHT30;54349;52.528;19.760;2022-09-09T03:02:14;23.09;47.34
67502;SHT30;54349;52.528;19.760;2022-09-09T03:04:45;23.14;47.30
67502;SHT30;54349;52.528;19.760;2022-09-09T03:07:19;23.19;47.30
67502;SHT30;54349;52.528;19.760;2022-09-09T03:09:48;23.23;47.23
67502;SHT30;54349;52.528;19.760;2022-09-09T03:12:17;23.27;47.19
67502;SHT30;54349;52.528;19.760;2022-09-09T03:14:44;23.31;47.18
67502;SHT30;54349;52.528;19.760;2022-09-09T03:17:14;23.32;46.78
67502;SHT30;54349;52.528;19.760;2022-09-09T03:19:48;23.09;47.00
67502;SHT30;54349;52.528;19.760;2022-09-09T03:22:17;23.02;47.50
67502;SHT30;54349;52.528;19.760;2022-09-09T03:24:46;23.07;47.53
67502;SHT30;54349;52.528;19.760;2022-09-09T03:27:14;23.13;47.50
67502;SHT30;54349;52.528;19.760;2022-09-09T03:29:43;23.17;47.45
67502;SHT30;54349;52.528;19.760;2022-09-09T03:32:14;23.20;47.45
67502;SHT30;54349;52.528;19.760;2022-09-09T03:34:45;23.25;47.40
67502;SHT30;54349;52.528;19.760;2022-09-09T03:37:17;23.28;47.34
67502;SHT30;54349;52.528;19.760;2022-09-09T03:39:49;23.18;46.89
67502;SHT30;54349;52.528;19.760;2022-09-09T03:42:17;23.01;47.69
67502;SHT30;54349;52.528;19.760;2022-09-09T03:44:47;23.04;47.73
67502;SHT30;54349;52.528;19.760;2022-09-09T03:47:19;23.09;47.70
67502;SHT30;54349;52.528;19.760;2022-09-09T03:49:50;23.14;47.63
67502;SHT30;54349;52.528;19.760;2022-09-09T03:52:18;23.18;47.60
67502;SHT30;54349;52.528;19.760;2022-09-09T03:54:51;23.21;47.55
67502;SHT30;54349;52.528;19.760;2022-09-09T03:57:21;23.25;47.52
67502;SHT30;54349;52.528;19.760;2022-09-09T03:59:49;23.28;47.25
67502;SHT30;54349;52.528;19.760;2022-09-09T04:02:18;23.09;47.23
67502;SHT30;54349;52.528;19.760;2022-09-09T04:04:46;23.01;47.83
67502;SHT30;54349;52.528;19.760;2022-09-09T04:07:15;23.05;47.82
67502;SHT30;54349;52.528;19.760;2022-09-09T04:09:43;23.10;47.77
67502;SHT30;54349;52.528;19.760;2022-09-09T04:12:13;23.14;47.70
67502;SHT30;54349;52.528;19.760;2022-09-09T04:14:42;23.17;47.66
67502;SHT30;54349;52.528;19.760;2022-09-09T04:17:10;23.20;47.61
67502;SHT30;54349;52.528;19.760;2022-09-09T04:19:38;23.24;47.58
67502;SHT30;54349;52.528;19.760;2022-09-09T04:22:08;23.25;47.16
67502;SHT30;54349;52.528;19.760;2022-09-09T04:24:37;23.05;47.37
67502;SHT30;54349;52.528;19.760;2022-09-09T04:27:05;22.98;47.82
67502;SHT30;54349;52.528;19.760;2022-09-09T04:29:34;23.04;47.80
67502;SHT30;54349;52.528;19.760;2022-09-09T04:32:02;23.07;47.76
67502;SHT30;54349;52.528;19.760;2022-09-09T04:34:30;23.11;47.68
67502;SHT30;54349;52.528;19.760;2022-09-09T04:36:58;23.15;47.62
67502;SHT30;54349;52.528;19.760;2022-09-09T04:39:28;23.18;47.70
67502;SHT30;54349;52.528;19.760;2022-09-09T04:41:58;23.21;47.70
67502;SHT30;54349;52.528;19.760;2022-09-09T04:44:26;23.24;47.41
67502;SHT30;54349;52.528;19.760;2022-09-09T04:46:54;23.02;47.55
67502;SHT30;54349;52.528;19.760;2022-09-09T04:49:22;22.94;48.30
67502;SHT30;54349;52.528;19.760;2022-09-09T04:51:51;22.98;48.32
67502;SHT30;54349;52.528;19.760;2022-09-09T04:54:20;23.04;48.28
67502;SHT30;54349;52.528;19.760;2022-09-09T04:56:50;23.08;48.21
67502;SHT30;54349;52.528;19.760;2022-09-09T04:59:18;23.11;48.18
67502;SHT30;54349;52.528;19.760;2022-09-09T05:01:48;23.15;48.15
67502;SHT30;54349;52.528;19.760;2022-09-09T05:04:18;23.19;48.19
67502;SHT30;54349;52.528;19.760;2022-09-09T05:06:47;23.22;48.11
67502;SHT30;54349;52.528;19.760;2022-09-09T05:09:15;23.09;47.61
67502;SHT30;54349;52.528;19.760;2022-09-09T05:11:44;22.95;48.59
67502;SHT30;54349;52.528;19.760;2022-09-09T05:14:22;22.99;48.87
67502;SHT30;54349;52.528;19.760;2022-09-09T05:16:50;23.03;48.78
67502;SHT30;54349;52.528;19.760;2022-09-09T05:19:18;23.08;48.67
67502;SHT30;54349;52.528;19.760;2022-09-09T05:21:48;23.11;48.61
67502;SHT30;54349;52.528;19.760;2022-09-09T05:24:21;23.15;48.55
67502;SHT30;54349;52.528;19.760;2022-09-09T05:26:52;23.18;48.50
67502;SHT30;54349;52.528;19.760;2022-09-09T05:29:21;23.21;48.49
67502;SHT30;54349;52.528;19.760;2022-09-09T05:31:49;23.13;47.74
67502;SHT30;54349;52.528;19.760;2022-09-09T05:34:19;22.93;48.71
67502;SHT30;54349;52.528;19.760;2022-09-09T05:36:49;22.94;48.91
67502;SHT30;54349;52.528;19.760;2022-09-09T05:39:17;22.99;48.83
67502;SHT30;54349;52.528;19.760;2022-09-09T05:41:45;23.03;48.72
67502;SHT30;54349;52.528;19.760;2022-09-09T05:44:14;23.08;48.69
67502;SHT30;54349;52.528;19.760;2022-09-09T05:46:43;23.11;48.61
67502;SHT30;54349;52.528;19.760;2022-09-09T05:49:13;23.14;48.54
67502;SHT30;54349;52.528;19.760;2022-09-09T05:51:43;23.17;48.49
67502;SHT30;54349;52.528;19.760;2022-09-09T05:54:13;23.20;48.44
67502;SHT30;54349;52.528;19.760;2022-09-09T05:56:46;23.14;47.79
67502;SHT30;54349;52.528;19.760;2022-09-09T05:59:19;22.94;48.68
67502;SHT30;54349;52.528;19.760;2022-09-09T06:01:50;22.95;48.80
67502;SHT30;54349;52.528;19.760;2022-09-09T06:04:38;23.02;48.92
67502;SHT30;54349;52.528;19.760;2022-09-09T06:07:08;23.08;49.04
67502;SHT30;54349;52.528;19.760;2022-09-09T06:09:36;23.14;49.12
67502;SHT30;54349;52.528;19.760;2022-09-09T06:12:06;23.19;49.10
67502;SHT30;54349;52.528;19.760;2022-09-09T06:14:35;23.23;49.05
67502;SHT30;54349;52.528;19.760;2022-09-09T06:17:06;23.27;49.06
67502;SHT30;54349;52.528;19.760;2022-09-09T06:19:36;23.28;48.34
67502;SHT30;54349;52.528;19.760;2022-09-09T06:22:04;23.10;48.91
67502;SHT30;54349;52.528;19.760;2022-09-09T06:24:34;23.11;49.18
67502;SHT30;54349;52.528;19.760;2022-09-09T06:27:02;23.17;49.20
67502;SHT30;54349;52.528;19.760;2022-09-09T06:29:34;23.25;49.19
67502;SHT30;54349;52.528;19.760;2022-09-09T06:32:02;23.29;49.10
67502;SHT30;54349;52.528;19.760;2022-09-09T06:34:31;23.35;49.04
67502;SHT30;54349;52.528;19.760;2022-09-09T06:36:59;23.41;48.92
67502;SHT30;54349;52.528;19.760;2022-09-09T06:39:38;23.35;48.11
67502;SHT30;54349;52.528;19.760;2022-09-09T06:42:07;23.18;48.94
67502;SHT30;54349;52.528;19.760;2022-09-09T06:44:43;23.22;49.10
67502;SHT30;54349;52.528;19.760;2022-09-09T06:47:15;23.29;49.10
67502;SHT30;54349;52.528;19.760;2022-09-09T06:49:44;23.36;49.00
67502;SHT30;54349;52.528;19.760;2022-09-09T06:52:15;23.42;48.95
67502;SHT30;54349;52.528;19.760;2022-09-09T06:54:46;23.47;48.92
67502;SHT30;54349;52.528;19.760;2022-09-09T06:57:15;23.51;48.58
67502;SHT30;54349;52.528;19.760;2022-09-09T07:00:05;23.34;48.44
67502;SHT30;54349;52.528;19.760;2022-09-09T07:02:34;23.30;48.98
67502;SHT30;54349;52.528;19.760;2022-09-09T07:05:07;23.36;48.94
67502;SHT30;54349;52.528;19.760;2022-09-09T07:07:36;23.42;48.82
67502;SHT30;54349;52.528;19.760;2022-09-09T07:10:05;23.48;48.71
67502;SHT30;54349;52.528;19.760;2022-09-09T07:12:33;23.52;48.69
67502;SHT30;54349;52.528;19.760;2022-09-09T07:15:02;23.56;48.30
67502;SHT30;54349;52.528;19.760;2022-09-09T07:17:31;23.40;48.43
67502;SHT30;54349;52.528;19.760;2022-09-09T07:19:59;23.36;48.84
67502;SHT30;54349;52.528;19.760;2022-09-09T07:22:28;23.43;48.88
67502;SHT30;54349;52.528;19.760;2022-09-09T07:24:56;23.49;49.03
67502;SHT30;54349;52.528;19.760;2022-09-09T07:27:25;23.56;49.04
67502;SHT30;54349;52.528;19.760;2022-09-09T07:29:54;23.63;48.88
67502;SHT30;54349;52.528;19.760;2022-09-09T07:32:25;23.67;48.41
67502;SHT30;54349;52.528;19.760;2022-09-09T07:34:53;23.50;48.29
67502;SHT30;54349;52.528;19.760;2022-09-09T07:37:21;23.45;48.57
67502;SHT30;54349;52.528;19.760;2022-09-09T07:39:50;23.51;48.50
67502;SHT30;54349;52.528;19.760;2022-09-09T07:42:19;23.57;48.52
67502;SHT30;54349;52.528;19.760;2022-09-09T07:44:48;23.63;48.86
67502;SHT30;54349;52.528;19.760;2022-09-09T07:47:16;23.67;48.79
67502;SHT30;54349;52.528;19.760;2022-09-09T07:49:47;23.55;48.16
67502;SHT30;54349;52.528;19.760;2022-09-09T07:52:22;23.43;49.02
67502;SHT30;54349;52.528;19.760;2022-09-09T07:54:54;23.46;49.05
67502;SHT30;54349;52.528;19.760;2022-09-09T07:57:24;23.52;49.04
67502;SHT30;54349;52.528;19.760;2022-09-09T07:59:53;23.60;49.07
67502;SHT30;54349;52.528;19.760;2022-09-09T08:02:25;23.66;49.11
67502;SHT30;54349;52.528;19.760;2022-09-09T08:04:56;23.69;48.61
67502;SHT30;54349;52.528;19.760;2022-09-09T08:07:24;23.53;48.62
67502;SHT30;54349;52.528;19.760;2022-09-09T08:09:54;23.47;49.15
67502;SHT30;54349;52.528;19.760;2022-09-09T08:12:30;23.53;49.18
67502;SHT30;54349;52.528;19.760;2022-09-09T08:15:03;23.59;49.07
67502;SHT30;54349;52.528;19.760;2022-09-09T08:17:33;23.64;48.97
67502;SHT30;54349;52.528;19.760;2022-09-09T08:20:04;23.68;48.88
67502;SHT30;54349;52.528;19.760;2022-09-09T08:22:34;23.68;48.23
67502;SHT30;54349;52.528;19.760;2022-09-09T08:25:02;23.51;48.74
67502;SHT30;54349;52.528;19.760;2022-09-09T08:27:34;23.50;48.97
67502;SHT30;54349;52.528;19.760;2022-09-09T08:30:04;23.56;49.04
67502;SHT30;54349;52.528;19.760;2022-09-09T08:32:34;23.61;49.00
67502;SHT30;54349;52.528;19.760;2022-09-09T08:35:07;23.67;48.91
67502;SHT30;54349;52.528;19.760;2022-09-09T08:37:38;23.68;47.89
67502;SHT30;54349;52.528;19.760;2022-09-09T08:40:08;23.50;48.22
67502;SHT30;54349;52.528;19.760;2022-09-09T08:42:51;23.50;48.77
67502;SHT30;54349;52.528;19.760;2022-09-09T08:48:13;23.63;48.95
67502;SHT30;54349;52.528;19.760;2022-09-09T08:51:05;23.69;48.88
67502;SHT30;54349;52.528;19.760;2022-09-09T08:53:44;23.75;48.66
67502;SHT30;54349;52.528;19.760;2022-09-09T08:56:24;23.61;48.43
67502;SHT30;54349;52.528;19.760;2022-09-09T08:58:59;23.54;48.95
67502;SHT30;54349;52.528;19.760;2022-09-09T09:04:44;23.68;49.13
67502;SHT30;54349;52.528;19.760;2022-09-09T09:07:40;23.74;49.08
67502;SHT30;54349;52.528;19.760;2022-09-09T09:10:25;23.68;48.48
67502;SHT30;54349;52.528;19.760;2022-09-09T09:13:42;23.52;49.16
67502;SHT30;54349;52.528;19.760;2022-09-09T09:16:37;23.59;49.22
67502;SHT30;54349;52.528;19.760;2022-09-09T09:19:38;23.67;49.11
67502;SHT30;54349;52.528;19.760;2022-09-09T09:30:49;23.61;49.11
67502;SHT30;54349;52.528;19.760;2022-09-09T09:36:19;23.74;49.02
67502;SHT30;54349;52.528;19.760;2022-09-09T09:39:02;23.76;48.50
67502;SHT30;54349;52.528;19.760;2022-09-09T09:41:53;23.57;48.92
67502;SHT30;54349;52.528;19.760;2022-09-09T09:44:24;23.60;49.11
67502;SHT30;54349;52.528;19.760;2022-09-09T09:47:08;23.65;49.11
67502;SHT30;54349;52.528;19.760;2022-09-09T09:50:18;23.74;49.04
67502;SHT30;54349;52.528;19.760;2022-09-09T09:52:54;23.78;48.68
67502;SHT30;54349;52.528;19.760;2022-09-09T09:55:35;23.62;48.86
67502;SHT30;54349;52.528;19.760;2022-09-09T09:58:15;23.60;49.12
67502;SHT30;54349;52.528;19.760;2022-09-09T10:00:51;23.66;49.12
67502;SHT30;54349;52.528;19.760;2022-09-09T10:03:31;23.73;49.04
67502;SHT30;54349;52.528;19.760;2022-09-09T10:06:08;23.79;48.92
67502;SHT30;54349;52.528;19.760;2022-09-09T10:08:44;23.69;48.62
67502;SHT30;54349;52.528;19.760;2022-09-09T10:20:33;23.79;48.72
67502;SHT30;54349;52.528;19.760;2022-09-09T10:23:19;23.59;49.10
67502;SHT30;54349;52.528;19.760;2022-09-09T10:29:07;23.69;49.30
67502;SHT30;54349;52.528;19.760;2022-09-09T10:38:05;23.62;49.20
67502;SHT30;54349;52.528;19.760;2022-09-09T10:41:11;23.63;49.61
67502;SHT30;54349;52.528;19.760;2022-09-09T10:55:38;23.68;49.73
67502;SHT30;54349;52.528;19.760;2022-09-09T10:58:25;23.76;49.55
67502;SHT30;54349;52.528;19.760;2022-09-09T11:01:08;23.83;49.31
67502;SHT30;54349;52.528;19.760;2022-09-09T11:07:07;23.67;49.61
67502;SHT30;54349;52.528;19.760;2022-09-09T11:09:52;23.75;49.65
67502;SHT30;54349;52.528;19.760;2022-09-09T11:12:30;23.86;49.81
67502;SHT30;54349;52.528;19.760;2022-09-09T11:15:06;23.97;49.65
67502;SHT30;54349;52.528;19.760;2022-09-09T11:17:47;23.79;49.35
67502;SHT30;54349;52.528;19.760;2022-09-09T11:20:22;23.67;50.26
67502;SHT30;54349;52.528;19.760;2022-09-09T11:22:57;23.78;50.53
67502;SHT30;54349;52.528;19.760;2022-09-09T11:25:46;23.92;50.69
67502;SHT30;54349;52.528;19.760;2022-09-09T11:34:39;23.59;50.91
67502;SHT30;54349;52.528;19.760;2022-09-09T11:40:20;23.87;51.36
67502;SHT30;54349;52.528;19.760;2022-09-09T11:43:05;24.03;51.46
67502;SHT30;54349;52.528;19.760;2022-09-09T11:45:53;24.04;50.21
67502;SHT30;54349;52.528;19.760;2022-09-09T11:48:31;23.70;50.64
67502;SHT30;54349;52.528;19.760;2022-09-09T11:53:31;23.74;52.27
67502;SHT30;54349;52.528;19.760;2022-09-09T11:56:02;23.91;52.21
67502;SHT30;54349;52.528;19.760;2022-09-09T11:58:36;24.02;51.62
67502;SHT30;54349;52.528;19.760;2022-09-09T12:01:42;24.05;50.37
67502;SHT30;54349;52.528;19.760;2022-09-09T12:04:06;23.71;49.98
67502;SHT30;54349;52.528;19.760;2022-09-09T12:12:38;23.76;51.05
67502;SHT30;54349;52.528;19.760;2022-09-09T12:17:43;23.87;49.95
67502;SHT30;54349;52.528;19.760;2022-09-09T12:20:22;23.73;50.39
67502;SHT30;54349;52.528;19.760;2022-09-09T12:26:12;23.86;50.23
67502;SHT30;54349;52.528;19.760;2022-09-09T12:34:35;23.74;49.89
67502;SHT30;54349;52.528;19.760;2022-09-09T12:37:16;23.76;49.96
67502;SHT30;54349;52.528;19.760;2022-09-09T12:40:01;23.85;49.87
67502;SHT30;54349;52.528;19.760;2022-09-09T12:42:39;23.95;49.69
67502;SHT30;54349;52.528;19.760;2022-09-09T12:45:16;24.02;49.48
67502;SHT30;54349;52.528;19.760;2022-09-09T12:48:00;23.84;49.36
67502;SHT30;54349;52.528;19.760;2022-09-09T12:50:37;23.73;49.81
67502;SHT30;54349;52.528;19.760;2022-09-09T12:53:18;23.80;49.81
67502;SHT30;54349;52.528;19.760;2022-09-09T12:55:59;23.91;49.70
67502;SHT30;54349;52.528;19.760;2022-09-09T12:58:32;24.00;49.54
67502;SHT30;54349;52.528;19.760;2022-09-09T13:01:02;23.97;49.36
67502;SHT30;54349;52.528;19.760;2022-09-09T13:03:33;23.80;49.91
67502;SHT30;54349;52.528;19.760;2022-09-09T13:06:16;23.85;50.32
67502;SHT30;54349;52.528;19.760;2022-09-09T13:08:56;23.99;50.53
67502;SHT30;54349;52.528;19.760;2022-09-09T13:11:29;24.10;50.59
67502;SHT30;54349;52.528;19.760;2022-09-09T13:14:22;24.12;50.34
67502;SHT30;54349;52.528;19.760;2022-09-09T13:17:00;23.84;50.19
67502;SHT30;54349;52.528;19.760;2022-09-09T13:19:35;23.58;50.52
67502;SHT30;54349;52.528;19.760;2022-09-09T13:22:14;23.45;51.39
67502;SHT30;54349;52.528;19.760;2022-09-09T13:25:26;23.59;51.50
67502;SHT30;54349;52.528;19.760;2022-09-09T13:27:57;23.79;51.50
67502;SHT30;54349;52.528;19.760;2022-09-09T13:30:31;23.96;51.49
67502;SHT30;54349;52.528;19.760;2022-09-09T13:41:23;23.60;51.71
67502;SHT30;54349;52.528;19.760;2022-09-09T13:44:02;23.75;51.31
67502;SHT30;54349;52.528;19.760;2022-09-09T13:46:35;23.88;51.03
67502;SHT30;54349;52.528;19.760;2022-09-09T13:51:42;23.92;50.39
67502;SHT30;54349;52.528;19.760;2022-09-09T13:54:15;23.73;50.71
67502;SHT30;54349;52.528;19.760;2022-09-09T13:56:46;23.71;50.79
67502;SHT30;54349;52.528;19.760;2022-09-09T13:59:16;23.79;50.61
67502;SHT30;54349;52.528;19.760;2022-09-09T14:02:09;23.91;50.41
67502;SHT30;54349;52.528;19.760;2022-09-09T14:04:38;23.95;50.26
67502;SHT30;54349;52.528;19.760;2022-09-09T14:07:10;23.80;50.24
67502;SHT30;54349;52.528;19.760;2022-09-09T14:09:41;23.68;50.70
67502;SHT30;54349;52.528;19.760;2022-09-09T14:12:13;23.74;50.68
67502;SHT30;54349;52.528;19.760;2022-09-09T14:14:42;23.84;50.61
67502;SHT30;54349;52.528;19.760;2022-09-09T14:17:11;23.93;50.51
67502;SHT30;54349;52.528;19.760;2022-09-09T14:19:39;23.94;50.85
67502;SHT30;54349;52.528;19.760;2022-09-09T14:22:08;23.77;51.23
67502;SHT30;54349;52.528;19.760;2022-09-09T14:24:36;23.68;51.68
67502;SHT30;54349;52.528;19.760;2022-09-09T14:27:04;23.75;51.72
67502;SHT30;54349;52.528;19.760;2022-09-09T14:29:32;23.84;51.69
67502;SHT30;54349;52.528;19.760;2022-09-09T14:32:00;23.94;51.57
67502;SHT30;54349;52.528;19.760;2022-09-09T14:34:29;24.00;51.45
67502;SHT30;54349;52.528;19.760;2022-09-09T14:36:59;23.86;51.61
67502;SHT30;54349;52.528;19.760;2022-09-09T14:39:31;23.74;52.17
67502;SHT30;54349;52.528;19.760;2022-09-09T14:41:59;23.78;52.13
67502;SHT30;54349;52.528;19.760;2022-09-09T14:44:28;23.87;52.10
67502;SHT30;54349;52.528;19.760;2022-09-09T14:46:56;23.96;52.00
67502;SHT30;54349;52.528;19.760;2022-09-09T14:49:26;23.96;51.81
67502;SHT30;54349;52.528;19.760;2022-09-09T14:51:54;23.80;52.00
67502;SHT30;54349;52.528;19.760;2022-09-09T14:54:22;23.73;52.20
67502;SHT30;54349;52.528;19.760;2022-09-09T14:56:50;23.79;52.18
67502;SHT30;54349;52.528;19.760;2022-09-09T14:59:18;23.87;52.08
67502;SHT30;54349;52.528;19.760;2022-09-09T15:01:46;23.95;51.91
67502;SHT30;54349;52.528;19.760;2022-09-09T15:04:15;23.89;51.71
67502;SHT30;54349;52.528;19.760;2022-09-09T15:06:44;23.73;52.21
67502;SHT30;54349;52.528;19.760;2022-09-09T15:09:15;23.75;52.18
67502;SHT30;54349;52.528;19.760;2022-09-09T15:11:44;23.83;52.15
67502;SHT30;54349;52.528;19.760;2022-09-09T15:14:12;23.92;52.04
67502;SHT30;54349;52.528;19.760;2022-09-09T15:16:41;23.94;51.22
67502;SHT30;54349;52.528;19.760;2022-09-09T15:19:10;23.77;51.85
67502;SHT30;54349;52.528;19.760;2022-09-09T15:21:38;23.76;51.98
67502;SHT30;54349;52.528;19.760;2022-09-09T15:24:06;23.81;52.01
67502;SHT30;54349;52.528;19.760;2022-09-09T15:26:36;23.90;51.96
67502;SHT30;54349;52.528;19.760;2022-09-09T15:29:08;23.94;51.82
67502;SHT30;54349;52.528;19.760;2022-09-09T15:31:37;23.82;52.03
67502;SHT30;54349;52.528;19.760;2022-09-09T15:34:05;23.72;52.22
67502;SHT30;54349;52.528;19.760;2022-09-09T15:36:42;23.78;52.21
67502;SHT30;54349;52.528;19.760;2022-09-09T15:39:14;23.86;52.10
67502;SHT30;54349;52.528;19.760;2022-09-09T15:41:46;23.92;51.97
67502;SHT30;54349;52.528;19.760;2022-09-09T15:44:16;23.93;51.61
67502;SHT30;54349;52.528;19.760;2022-09-09T15:46:51;23.78;51.96
67502;SHT30;54349;52.528;19.760;2022-09-09T15:49:25;23.77;52.00
67502;SHT30;54349;52.528;19.760;2022-09-09T15:51:55;23.83;51.96
67502;SHT30;54349;52.528;19.760;2022-09-09T15:54:26;23.92;51.91
67502;SHT30;54349;52.528;19.760;2022-09-09T15:56:55;23.97;51.72
67502;SHT30;54349;52.528;19.760;2022-09-09T15:59:30;23.89;51.61
67502;SHT30;54349;52.528;19.760;2022-09-09T16:02:02;23.76;52.03
67502;SHT30;54349;52.528;19.760;2022-09-09T16:04:31;23.78;51.93
67502;SHT30;54349;52.528;19.760;2022-09-09T16:07:00;23.87;51.88
67502;SHT30;54349;52.528;19.760;2022-09-09T16:09:33;23.92;51.72
67502;SHT30;54349;52.528;19.760;2022-09-09T16:12:03;23.89;51.44
67502;SHT30;54349;52.528;19.760;2022-09-09T16:14:37;23.76;51.90
67502;SHT30;54349;52.528;19.760;2022-09-09T16:17:06;23.77;51.81
67502;SHT30;54349;52.528;19.760;2022-09-09T16:19:34;23.84;51.78
67502;SHT30;54349;52.528;19.760;2022-09-09T16:22:03;23.89;51.66
67502;SHT30;54349;52.528;19.760;2022-09-09T16:24:34;23.94;51.33
67502;SHT30;54349;52.528;19.760;2022-09-09T16:27:02;23.79;51.45
67502;SHT30;54349;52.528;19.760;2022-09-09T16:29:31;23.72;51.63
67502;SHT30;54349;52.528;19.760;2022-09-09T16:32:00;23.77;51.64
67502;SHT30;54349;52.528;19.760;2022-09-09T16:34:31;23.84;51.58
67502;SHT30;54349;52.528;19.760;2022-09-09T16:37:01;23.90;51.43
67502;SHT30;54349;52.528;19.760;2022-09-09T16:39:29;23.87;51.10
67502;SHT30;54349;52.528;19.760;2022-09-09T16:41:58;23.73;51.57
67502;SHT30;54349;52.528;19.760;2022-09-09T16:44:27;23.73;51.57
67502;SHT30;54349;52.528;19.760;2022-09-09T16:46:55;23.80;51.49
67502;SHT30;54349;52.528;19.760;2022-09-09T16:49:27;23.86;51.42
67502;SHT30;54349;52.528;19.760;2022-09-09T16:51:58;23.89;51.18
67502;SHT30;54349;52.528;19.760;2022-09-09T16:54:27;23.79;51.17
67502;SHT30;54349;52.528;19.760;2022-09-09T16:56:57;23.71;51.37
67502;SHT30;54349;52.528;19.760;2022-09-09T16:59:27;23.76;51.40
67502;SHT30;54349;52.528;19.760;2022-09-09T17:01:56;23.81;51.37
67502;SHT30;54349;52.528;19.760;2022-09-09T17:04:27;23.85;51.10
67502;SHT30;54349;52.528;19.760;2022-09-09T17:06:55;23.75;51.18
67502;SHT30;54349;52.528;19.760;2022-09-09T17:09:25;23.70;51.30
67502;SHT30;54349;52.528;19.760;2022-09-09T17:11:57;23.75;51.32
67502;SHT30;54349;52.528;19.760;2022-09-09T17:14:26;23.79;51.28
67502;SHT30;54349;52.528;19.760;2022-09-09T17:16:54;23.84;51.11
67502;SHT30;54349;52.528;19.760;2022-09-09T17:19:35;23.78;50.91
67502;SHT30;54349;52.528;19.760;2022-09-09T17:22:04;23.68;51.25
67502;SHT30;54349;52.528;19.760;2022-09-09T17:24:44;23.70;51.25
67502;SHT30;54349;52.528;19.760;2022-09-09T17:27:12;23.76;51.24
67502;SHT30;54349;52.528;19.760;2022-09-09T17:29:41;23.80;51.15
67502;SHT30;54349;52.528;19.760;2022-09-09T17:32:09;23.80;50.77
67502;SHT30;54349;52.528;19.760;2022-09-09T17:34:37;23.68;51.18
67502;SHT30;54349;52.528;19.760;2022-09-09T17:37:06;23.69;51.16
67502;SHT30;54349;52.528;19.760;2022-09-09T17:39:34;23.73;51.15
67502;SHT30;54349;52.528;19.760;2022-09-09T17:42:03;23.78;51.10
67502;SHT30;54349;52.528;19.760;2022-09-09T17:44:31;23.82;50.95
67502;SHT30;54349;52.528;19.760;2022-09-09T17:47:00;23.74;50.80
67502;SHT30;54349;52.528;19.760;2022-09-09T17:49:28;23.61;51.11
67502;SHT30;54349;52.528;19.760;2022-09-09T17:51:56;23.64;51.15
67502;SHT30;54349;52.528;19.760;2022-09-09T17:54:25;23.69;51.14
67502;SHT30;54349;52.528;19.760;2022-09-09T17:56:53;23.75;51.10
67502;SHT30;54349;52.528;19.760;2022-09-09T17:59:24;23.77;50.75
67502;SHT30;54349;52.528;19.760;2022-09-09T18:01:54;23.62;50.98
67502;SHT30;54349;52.528;19.760;2022-09-09T18:04:26;23.60;51.09
67502;SHT30;54349;52.528;19.760;2022-09-09T18:06:55;23.64;51.14
67502;SHT30;54349;52.528;19.760;2022-09-09T18:09:24;23.69;51.09
67502;SHT30;54349;52.528;19.760;2022-09-09T18:11:55;23.73;50.90